sensor_id;sensor_type;location;lat;lon;timestamp;pressure;altitude;pressure_sealevel;temperature;humidity
818;BME280;391;51.052;6.954;2023-02-13T00:00:14;103063.75;;;9.51;83.08
818;BME280;391;51.052;6.954;2023-02-13T00:02:18;103063.03;;;9.54;83.55
818;BME280;391;51.052;6.954;2023-02-13T00:04:22;103059.88;;;9.58;83.43
818;BME280;391;51.052;6.954;2023-02-13T00:06:25;103009.91;;;9.39;83.24
818;BME280;391;51.052;6.954;2023-02-13T00:08:30;103057.69;;;9.64;83.21
818;BME280;391;51.052;6.954;2023-02-13T00:10:34;103045.34;;;9.62;83.09
818;BME280;391;51.052;6.954;2023-02-13T00:12:37;103043.53;;;9.61;83.42
818;BME280;391;51.052;6.954;2023-02-13T00:14:41;103058.59;;;9.65;83.44
818;BME280;391;51.052;6.954;2023-02-13T00:16:44;103041.75;;;9.60;83.25
818;BME280;391;51.052;6.954;2023-02-13T00:18:47;103032.25;;;9.60;83.51
818;BME280;391;51.052;6.954;2023-02-13T00:20:58;103043.09;;;9.66;83.51
818;BME280;391;51.052;6.954;2023-02-13T00:23:02;103036.59;;;9.73;83.37
818;BME280;391;51.052;6.954;2023-02-13T00:25:07;103041.81;;;9.73;83.32
818;BME280;391;51.052;6.954;2023-02-13T00:27:11;103034.00;;;9.73;83.38
818;BME280;391;51.052;6.954;2023-02-13T00:29:14;103037.38;;;9.72;83.42
818;BME280;391;51.052;6.954;2023-02-13T00:31:19;103029.72;;;9.62;83.25
818;BME280;391;51.052;6.954;2023-02-13T00:33:23;103039.38;;;9.63;83.19
818;BME280;391;51.052;6.954;2023-02-13T00:35:26;103038.25;;;9.59;83.72
818;BME280;391;51.052;6.954;2023-02-13T00:37:32;103030.72;;;9.64;83.58
818;BME280;391;51.052;6.954;2023-02-13T00:39:35;103028.81;;;9.61;83.39
818;BME280;391;51.052;6.954;2023-02-13T00:41:41;103025.44;;;9.62;83.23
818;BME280;391;51.052;6.954;2023-02-13T00:43:45;103028.25;;;9.65;83.52
818;BME280;391;51.052;6.954;2023-02-13T00:45:48;103025.31;;;9.61;82.89
818;BME280;391;51.052;6.954;2023-02-13T00:47:52;103024.09;;;9.55;83.00
818;BME280;391;51.052;6.954;2023-02-13T00:49:56;103020.00;;;9.59;83.58
818;BME280;391;51.052;6.954;2023-02-13T00:51:59;103015.72;;;9.60;83.18
818;BME280;391;51.052;6.954;2023-02-13T00:54:03;103018.09;;;9.56;83.58
818;BME280;391;51.052;6.954;2023-02-13T00:56:07;103003.84;;;9.51;83.28
818;BME280;391;51.052;6.954;2023-02-13T00:58:12;102990.88;;;9.40;83.60
818;BME280;391;51.052;6.954;2023-02-13T01:00:16;102961.50;;;9.29;83.23
818;BME280;391;51.052;6.954;2023-02-13T01:02:20;103018.47;;;9.49;83.13
818;BME280;391;51.052;6.954;2023-02-13T01:04:24;103016.78;;;9.50;83.32
818;BME280;391;51.052;6.954;2023-02-13T01:06:27;103017.78;;;9.52;83.14
818;BME280;391;51.052;6.954;2023-02-13T01:08:32;103016.44;;;9.45;83.41
818;BME280;391;51.052;6.954;2023-02-13T01:10:36;103016.84;;;9.51;83.33
818;BME280;391;51.052;6.954;2023-02-13T01:12:42;103015.44;;;9.43;83.21
818;BME280;391;51.052;6.954;2023-02-13T01:14:47;103020.44;;;9.40;83.50
818;BME280;391;51.052;6.954;2023-02-13T01:16:51;103017.91;;;9.42;83.81
818;BME280;391;51.052;6.954;2023-02-13T01:18:56;103008.75;;;9.47;83.46
818;BME280;391;51.052;6.954;2023-02-13T01:21:00;103014.94;;;9.49;83.14
818;BME280;391;51.052;6.954;2023-02-13T01:23:04;103010.44;;;9.46;83.38
818;BME280;391;51.052;6.954;2023-02-13T01:25:08;103016.44;;;9.45;83.33
818;BME280;391;51.052;6.954;2023-02-13T01:27:11;103009.66;;;9.47;83.75
818;BME280;391;51.052;6.954;2023-02-13T01:29:15;103008.75;;;9.47;83.61
818;BME280;391;51.052;6.954;2023-02-13T01:31:21;103005.66;;;9.52;83.65
818;BME280;391;51.052;6.954;2023-02-13T01:33:27;102995.56;;;9.57;83.21
818;BME280;391;51.052;6.954;2023-02-13T01:35:30;103010.50;;;9.60;83.56
818;BME280;391;51.052;6.954;2023-02-13T01:37:34;102990.72;;;9.50;83.44
818;BME280;391;51.052;6.954;2023-02-13T01:39:37;103009.03;;;9.51;83.47
818;BME280;391;51.052;6.954;2023-02-13T01:41:41;103001.34;;;9.53;83.64
818;BME280;391;51.052;6.954;2023-02-13T01:43:50;102993.00;;;9.45;83.12
818;BME280;391;51.052;6.954;2023-02-13T01:45:55;102995.53;;;9.32;83.70
818;BME280;391;51.052;6.954;2023-02-13T01:48:03;103005.59;;;9.39;83.86
818;BME280;391;51.052;6.954;2023-02-13T01:50:10;102994.50;;;9.42;83.67
818;BME280;391;51.052;6.954;2023-02-13T01:52:15;103001.38;;;9.41;83.34
818;BME280;391;51.052;6.954;2023-02-13T01:54:22;102997.94;;;9.29;83.46
818;BME280;391;51.052;6.954;2023-02-13T01:56:38;103000.41;;;9.39;83.90
818;BME280;391;51.052;6.954;2023-02-13T01:58:46;103007.22;;;9.37;83.94
818;BME280;391;51.052;6.954;2023-02-13T02:00:51;102998.75;;;9.28;83.74
818;BME280;391;51.052;6.954;2023-02-13T02:03:02;102995.53;;;9.32;83.89
818;BME280;391;51.052;6.954;2023-02-13T02:05:09;103004.91;;;9.42;84.03
818;BME280;391;51.052;6.954;2023-02-13T02:07:16;103001.34;;;9.53;83.46
818;BME280;391;51.052;6.954;2023-02-13T02:09:26;103006.56;;;9.53;83.27
818;BME280;391;51.052;6.954;2023-02-13T02:11:36;102995.25;;;9.52;83.38
818;BME280;391;51.052;6.954;2023-02-13T02:13:46;103003.84;;;9.51;83.45
818;BME280;391;51.052;6.954;2023-02-13T02:16:03;103001.72;;;9.46;83.10
818;BME280;391;51.052;6.954;2023-02-13T02:18:12;102998.56;;;9.38;83.99
818;BME280;391;51.052;6.954;2023-02-13T02:20:25;103009.91;;;9.39;83.56
818;BME280;391;51.052;6.954;2023-02-13T02:23:02;103012.00;;;9.31;83.79
818;BME280;391;51.052;6.954;2023-02-13T02:25:36;103003.28;;;9.19;84.51
818;BME280;391;51.052;6.954;2023-02-13T02:28:29;103004.53;;;9.24;84.05
818;BME280;391;51.052;6.954;2023-02-13T02:30:59;103006.09;;;9.34;84.26
818;BME280;391;51.052;6.954;2023-02-13T02:33:18;103011.38;;;9.35;84.07
818;BME280;391;51.052;6.954;2023-02-13T02:35:32;103003.00;;;9.39;84.13
818;BME280;391;51.052;6.954;2023-02-13T02:37:51;103003.47;;;9.34;84.07
818;BME280;391;51.052;6.954;2023-02-13T02:40:10;103003.06;;;9.28;83.99
818;BME280;391;51.052;6.954;2023-02-13T02:42:29;102998.84;;;9.30;84.29
818;BME280;391;51.052;6.954;2023-02-13T02:44:41;102996.16;;;9.28;84.26
818;BME280;391;51.052;6.954;2023-02-13T02:46:56;103003.34;;;9.32;84.07
818;BME280;391;51.052;6.954;2023-02-13T02:49:25;103001.22;;;9.27;84.27
818;BME280;391;51.052;6.954;2023-02-13T02:51:53;102999.97;;;9.33;84.44
818;BME280;391;51.052;6.954;2023-02-13T02:54:03;103003.34;;;9.32;84.09
818;BME280;391;51.052;6.954;2023-02-13T02:56:36;102999.75;;;9.30;84.15
818;BME280;391;51.052;6.954;2023-02-13T02:58:46;102992.66;;;9.16;84.64
818;BME280;391;51.052;6.954;2023-02-13T03:01:13;102996.38;;;9.20;84.36
818;BME280;391;51.052;6.954;2023-02-13T03:03:36;103001.72;;;9.21;84.72
818;BME280;391;51.052;6.954;2023-02-13T03:06:00;102997.00;;;9.16;84.76
818;BME280;391;51.052;6.954;2023-02-13T03:08:16;102990.19;;;9.18;84.80
818;BME280;391;51.052;6.954;2023-02-13T03:10:41;102997.50;;;9.23;84.66
818;BME280;391;51.052;6.954;2023-02-13T03:13:04;102994.81;;;9.22;84.75
818;BME280;391;51.052;6.954;2023-02-13T03:15:25;102997.00;;;9.16;84.48
818;BME280;391;51.052;6.954;2023-02-13T03:17:29;102988.50;;;9.07;84.66
818;BME280;391;51.052;6.954;2023-02-13T03:19:57;102998.25;;;9.09;85.26
818;BME280;391;51.052;6.954;2023-02-13T03:22:32;103001.38;;;9.17;84.77
818;BME280;391;51.052;6.954;2023-02-13T03:24:45;103001.38;;;9.17;84.53
818;BME280;391;51.052;6.954;2023-02-13T03:26:58;103007.06;;;9.11;84.79
818;BME280;391;51.052;6.954;2023-02-13T03:29:10;103000.16;;;9.12;85.11
818;BME280;391;51.052;6.954;2023-02-13T03:31:47;102995.66;;;9.09;85.23
818;BME280;391;51.052;6.954;2023-02-13T03:34:00;102868.72;;;8.44;84.94
818;BME280;391;51.052;6.954;2023-02-13T03:36:12;102994.47;;;9.17;84.62
818;BME280;391;51.052;6.954;2023-02-13T03:38:40;103000.16;;;9.12;84.85
818;BME280;391;51.052;6.954;2023-02-13T03:40:48;102997.13;;;9.06;84.71
818;BME280;391;51.052;6.954;2023-02-13T03:43:14;103001.50;;;9.07;84.81
818;BME280;391;51.052;6.954;2023-02-13T03:45:24;103015.00;;;9.01;85.14
818;BME280;391;51.052;6.954;2023-02-13T03:47:50;102970.25;;;8.82;84.99
818;BME280;391;51.052;6.954;2023-02-13T03:49:55;102998.38;;;8.99;85.02
818;BME280;391;51.052;6.954;2023-02-13T03:52:14;103005.84;;;8.94;85.44
818;BME280;391;51.052;6.954;2023-02-13T03:54:22;102993.75;;;8.95;84.87
818;BME280;391;51.052;6.954;2023-02-13T03:56:46;102994.44;;;8.81;85.65
818;BME280;391;51.052;6.954;2023-02-13T03:59:16;102999.31;;;8.88;85.79
818;BME280;391;51.052;6.954;2023-02-13T04:01:24;103000.00;;;8.85;85.46
818;BME280;391;51.052;6.954;2023-02-13T04:03:33;102995.78;;;8.87;85.73
818;BME280;391;51.052;6.954;2023-02-13T04:05:41;102957.84;;;8.66;85.75
818;BME280;391;51.052;6.954;2023-02-13T04:07:45;102993.31;;;8.89;85.64
818;BME280;391;51.052;6.954;2023-02-13T04:09:51;102996.00;;;8.90;85.46
818;BME280;391;51.052;6.954;2023-02-13T04:12:01;103000.78;;;8.84;85.78
818;BME280;391;51.052;6.954;2023-02-13T04:14:14;102906.25;;;8.36;85.37
818;BME280;391;51.052;6.954;2023-02-13T04:16:20;102991.63;;;8.89;84.98
818;BME280;391;51.052;6.954;2023-02-13T04:18:27;103011.19;;;8.96;85.54
818;BME280;391;51.052;6.954;2023-02-13T04:20:32;103005.16;;;8.97;85.08
818;BME280;391;51.052;6.954;2023-02-13T04:22:41;102998.97;;;8.95;85.18
818;BME280;391;51.052;6.954;2023-02-13T04:24:44;103008.59;;;8.96;85.18
818;BME280;391;51.052;6.954;2023-02-13T04:26:50;103011.75;;;8.92;85.44
818;BME280;391;51.052;6.954;2023-02-13T04:28:54;103010.97;;;8.93;85.40
818;BME280;391;51.052;6.954;2023-02-13T04:30:57;102995.66;;;8.97;85.11
818;BME280;391;51.052;6.954;2023-02-13T04:33:01;103011.19;;;8.96;85.02
818;BME280;391;51.052;6.954;2023-02-13T04:35:05;102992.88;;;8.83;85.13
818;BME280;391;51.052;6.954;2023-02-13T04:37:08;103015.72;;;8.87;85.63
818;BME280;391;51.052;6.954;2023-02-13T04:39:12;103012.66;;;8.92;85.36
818;BME280;391;51.052;6.954;2023-02-13T04:41:16;103013.56;;;8.93;85.24
818;BME280;391;51.052;6.954;2023-02-13T04:43:21;103002.13;;;8.91;85.23
818;BME280;391;51.052;6.954;2023-02-13T04:45:24;103009.16;;;8.92;85.42
818;BME280;391;51.052;6.954;2023-02-13T04:47:28;103007.78;;;8.85;84.98
818;BME280;391;51.052;6.954;2023-02-13T04:49:32;102946.66;;;8.56;85.26
818;BME280;391;51.052;6.954;2023-02-13T04:51:35;103010.38;;;8.97;84.62
818;BME280;391;51.052;6.954;2023-02-13T04:53:39;103005.75;;;8.93;84.56
818;BME280;391;51.052;6.954;2023-02-13T04:55:42;103007.94;;;8.87;85.12
818;BME280;391;51.052;6.954;2023-02-13T04:57:46;103004.28;;;8.85;85.17
818;BME280;391;51.052;6.954;2023-02-13T04:59:51;103002.13;;;8.91;84.94
818;BME280;391;51.052;6.954;2023-02-13T05:01:54;103003.94;;;8.92;85.10
818;BME280;391;51.052;6.954;2023-02-13T05:03:59;103002.34;;;8.94;85.09
818;BME280;391;51.052;6.954;2023-02-13T05:06:02;102997.97;;;8.93;84.52
818;BME280;391;51.052;6.954;2023-02-13T05:08:06;102997.25;;;8.95;84.43
818;BME280;391;51.052;6.954;2023-02-13T05:10:11;102998.03;;;8.94;84.43
818;BME280;391;51.052;6.954;2023-02-13T05:12:18;103003.94;;;8.92;84.71
818;BME280;391;51.052;6.954;2023-02-13T05:14:22;103001.22;;;8.90;84.71
818;BME280;391;51.052;6.954;2023-02-13T05:16:27;102998.63;;;8.90;84.49
818;BME280;391;51.052;6.954;2023-02-13T05:18:30;102974.09;;;8.87;84.29
818;BME280;391;51.052;6.954;2023-02-13T05:20:34;102996.31;;;9.07;83.93
818;BME280;391;51.052;6.954;2023-02-13T05:22:42;103002.56;;;9.09;83.96
818;BME280;391;51.052;6.954;2023-02-13T05:25:04;103000.56;;;8.93;83.86
818;BME280;391;51.052;6.954;2023-02-13T05:27:08;103002.03;;;8.89;84.32
818;BME280;391;51.052;6.954;2023-02-13T05:29:11;102974.25;;;8.77;83.77
818;BME280;391;51.052;6.954;2023-02-13T05:31:19;103003.59;;;8.87;84.05
818;BME280;391;51.052;6.954;2023-02-13T05:33:24;103003.03;;;8.91;83.85
818;BME280;391;51.052;6.954;2023-02-13T05:35:28;103000.09;;;8.98;83.92
818;BME280;391;51.052;6.954;2023-02-13T05:37:31;103007.44;;;8.92;83.17
818;BME280;391;51.052;6.954;2023-02-13T05:39:34;103007.66;;;8.84;83.78
818;BME280;391;51.052;6.954;2023-02-13T05:41:38;103008.06;;;8.77;83.69
818;BME280;391;51.052;6.954;2023-02-13T05:43:42;103013.47;;;8.68;84.30
818;BME280;391;51.052;6.954;2023-02-13T05:45:45;102995.19;;;8.55;84.41
818;BME280;391;51.052;6.954;2023-02-13T05:47:49;103011.78;;;8.57;84.49
818;BME280;391;51.052;6.954;2023-02-13T05:49:54;102999.25;;;8.52;84.23
818;BME280;391;51.052;6.954;2023-02-13T05:51:57;103008.28;;;8.57;84.22
818;BME280;391;51.052;6.954;2023-02-13T05:54:01;103008.28;;;8.57;84.57
818;BME280;391;51.052;6.954;2023-02-13T05:56:05;103007.28;;;8.55;84.36
818;BME280;391;51.052;6.954;2023-02-13T05:58:09;103007.81;;;8.62;84.43
818;BME280;391;51.052;6.954;2023-02-13T06:00:14;103013.25;;;8.65;83.85
818;BME280;391;51.052;6.954;2023-02-13T06:02:18;103007.03;;;8.63;84.09
818;BME280;391;51.052;6.954;2023-02-13T06:04:21;103004.53;;;8.65;83.92
818;BME280;391;51.052;6.954;2023-02-13T06:06:26;103008.72;;;8.63;83.90
818;BME280;391;51.052;6.954;2023-02-13T06:08:30;103007.38;;;8.56;83.94
818;BME280;391;51.052;6.954;2023-02-13T06:10:33;103007.06;;;8.52;84.20
818;BME280;391;51.052;6.954;2023-02-13T06:12:37;103007.59;;;8.59;84.15
818;BME280;391;51.052;6.954;2023-02-13T06:14:40;103006.13;;;8.63;83.64
818;BME280;391;51.052;6.954;2023-02-13T06:16:44;103017.91;;;8.58;84.16
818;BME280;391;51.052;6.954;2023-02-13T06:18:47;103001.72;;;8.62;83.83
818;BME280;391;51.052;6.954;2023-02-13T06:20:51;103004.22;;;8.60;83.79
818;BME280;391;51.052;6.954;2023-02-13T06:22:55;103003.09;;;8.57;84.08
818;BME280;391;51.052;6.954;2023-02-13T06:24:59;102997.53;;;8.52;83.67
818;BME280;391;51.052;6.954;2023-02-13T06:27:03;102997.91;;;8.45;84.18
818;BME280;391;51.052;6.954;2023-02-13T06:29:06;102998.69;;;8.32;84.23
818;BME280;391;51.052;6.954;2023-02-13T06:31:10;103006.00;;;8.26;84.90
818;BME280;391;51.052;6.954;2023-02-13T06:33:14;103001.38;;;8.22;85.06
818;BME280;391;51.052;6.954;2023-02-13T06:35:18;103004.97;;;8.24;84.70
818;BME280;391;51.052;6.954;2023-02-13T06:37:21;102997.94;;;8.23;85.30
818;BME280;391;51.052;6.954;2023-02-13T06:39:26;103000.38;;;8.32;85.21
818;BME280;391;51.052;6.954;2023-02-13T06:41:30;102998.00;;;8.35;84.88
818;BME280;391;51.052;6.954;2023-02-13T06:43:33;103002.53;;;8.37;84.84
818;BME280;391;51.052;6.954;2023-02-13T06:45:37;102963.41;;;8.13;84.51
818;BME280;391;51.052;6.954;2023-02-13T06:47:43;103006.47;;;8.44;84.40
818;BME280;391;51.052;6.954;2023-02-13T06:49:47;103001.75;;;8.38;84.31
818;BME280;391;51.052;6.954;2023-02-13T06:51:51;103005.59;;;8.32;84.53
818;BME280;391;51.052;6.954;2023-02-13T06:53:55;102993.88;;;8.27;84.81
818;BME280;391;51.052;6.954;2023-02-13T06:56:03;103006.66;;;8.24;84.60
818;BME280;391;51.052;6.954;2023-02-13T06:58:07;102976.16;;;8.10;85.05
818;BME280;391;51.052;6.954;2023-02-13T07:00:12;102999.22;;;8.17;84.90
818;BME280;391;51.052;6.954;2023-02-13T07:02:16;102992.31;;;8.06;85.07
818;BME280;391;51.052;6.954;2023-02-13T07:04:20;102997.63;;;8.07;85.01
818;BME280;391;51.052;6.954;2023-02-13T07:06:23;103000.78;;;8.03;85.23
818;BME280;391;51.052;6.954;2023-02-13T07:08:27;102971.84;;;7.87;85.24
818;BME280;391;51.052;6.954;2023-02-13T07:10:31;103003.25;;;8.02;85.47
818;BME280;391;51.052;6.954;2023-02-13T07:12:36;103006.44;;;7.97;85.48
818;BME280;391;51.052;6.954;2023-02-13T07:14:40;103002.47;;;7.91;85.86
818;BME280;391;51.052;6.954;2023-02-13T07:16:43;103002.78;;;7.95;85.77
818;BME280;391;51.052;6.954;2023-02-13T07:18:47;103008.22;;;7.98;85.57
818;BME280;391;51.052;6.954;2023-02-13T07:20:50;102998.97;;;8.02;85.43
818;BME280;391;51.052;6.954;2023-02-13T07:22:56;102899.44;;;7.68;87.38
818;BME280;391;51.052;6.954;2023-02-13T07:25:00;103008.94;;;8.66;86.67
818;BME280;391;51.052;6.954;2023-02-13T07:27:04;103012.22;;;8.75;87.21
818;BME280;391;51.052;6.954;2023-02-13T07:29:09;103007.75;;;9.09;88.62
818;BME280;391;51.052;6.954;2023-02-13T07:31:13;103009.41;;;9.20;86.60
818;BME280;391;51.052;6.954;2023-02-13T07:33:17;103017.16;;;8.95;85.65
818;BME280;391;51.052;6.954;2023-02-13T07:35:20;103015.41;;;8.71;84.97
818;BME280;391;51.052;6.954;2023-02-13T07:37:26;102915.81;;;8.02;85.04
818;BME280;391;51.052;6.954;2023-02-13T07:39:30;103012.13;;;8.50;85.23
818;BME280;391;51.052;6.954;2023-02-13T07:41:34;103005.91;;;8.36;84.89
818;BME280;391;51.052;6.954;2023-02-13T07:43:37;103013.25;;;8.30;84.97
818;BME280;391;51.052;6.954;2023-02-13T07:45:42;103017.06;;;8.24;85.22
818;BME280;391;51.052;6.954;2023-02-13T07:47:53;103015.69;;;8.17;85.42
818;BME280;391;51.052;6.954;2023-02-13T07:49:57;103015.38;;;8.13;85.29
818;BME280;391;51.052;6.954;2023-02-13T07:52:01;102956.34;;;7.77;85.25
818;BME280;391;51.052;6.954;2023-02-13T07:54:05;103016.38;;;8.15;85.55
818;BME280;391;51.052;6.954;2023-02-13T07:56:09;103015.47;;;8.14;85.36
818;BME280;391;51.052;6.954;2023-02-13T07:58:13;103011.84;;;8.12;85.35
818;BME280;391;51.052;6.954;2023-02-13T08:00:18;103018.06;;;8.14;85.46
818;BME280;391;51.052;6.954;2023-02-13T08:02:23;102997.94;;;8.00;85.35
818;BME280;391;51.052;6.954;2023-02-13T08:04:26;103018.28;;;8.17;85.51
818;BME280;391;51.052;6.954;2023-02-13T08:06:30;103016.16;;;8.12;85.49
818;BME280;391;51.052;6.954;2023-02-13T08:08:33;103007.75;;;8.04;85.54
818;BME280;391;51.052;6.954;2023-02-13T08:10:39;102965.16;;;7.79;85.95
818;BME280;391;51.052;6.954;2023-02-13T08:13:00;103019.75;;;8.14;85.52
818;BME280;391;51.052;6.954;2023-02-13T08:15:04;103016.28;;;8.13;85.82
818;BME280;391;51.052;6.954;2023-02-13T08:17:09;103013.00;;;8.16;85.76
818;BME280;391;51.052;6.954;2023-02-13T08:19:14;103023.16;;;8.24;85.38
818;BME280;391;51.052;6.954;2023-02-13T08:21:17;103017.97;;;8.24;85.27
818;BME280;391;51.052;6.954;2023-02-13T08:23:20;102993.13;;;8.16;85.46
818;BME280;391;51.052;6.954;2023-02-13T08:25:24;103022.09;;;8.32;85.27
818;BME280;391;51.052;6.954;2023-02-13T08:27:27;103024.56;;;8.31;85.32
818;BME280;391;51.052;6.954;2023-02-13T08:29:31;103018.81;;;8.35;85.03
818;BME280;391;51.052;6.954;2023-02-13T08:31:35;103022.63;;;8.40;85.23
818;BME280;391;51.052;6.954;2023-02-13T08:33:39;103013.94;;;8.39;84.96
818;BME280;391;51.052;6.954;2023-02-13T08:35:44;103014.97;;;8.41;85.17
818;BME280;391;51.052;6.954;2023-02-13T08:37:49;103022.53;;;8.50;84.53
818;BME280;391;51.052;6.954;2023-02-13T08:39:52;103021.41;;;8.46;84.55
818;BME280;391;51.052;6.954;2023-02-13T08:41:56;102997.88;;;8.33;84.19
818;BME280;391;51.052;6.954;2023-02-13T08:43:59;103031.78;;;8.46;84.27
818;BME280;391;51.052;6.954;2023-02-13T08:46:03;103020.72;;;8.49;84.34
818;BME280;391;51.052;6.954;2023-02-13T08:48:07;102978.56;;;8.30;84.13
818;BME280;391;51.052;6.954;2023-02-13T08:50:10;103026.84;;;8.61;83.46
818;BME280;391;51.052;6.954;2023-02-13T08:52:15;103016.44;;;8.61;83.49
818;BME280;391;51.052;6.954;2023-02-13T08:54:18;103019.13;;;8.63;83.05
818;BME280;391;51.052;6.954;2023-02-13T08:56:22;103027.16;;;8.77;83.55
818;BME280;391;51.052;6.954;2023-02-13T08:58:26;103014.69;;;8.85;83.08
818;BME280;391;51.052;6.954;2023-02-13T09:00:29;103023.75;;;8.90;82.14
818;BME280;391;51.052;6.954;2023-02-13T09:02:33;103022.81;;;9.01;82.51
818;BME280;391;51.052;6.954;2023-02-13T09:04:36;103032.97;;;9.10;81.75
818;BME280;391;51.052;6.954;2023-02-13T09:06:40;103028.69;;;8.98;81.42
818;BME280;391;51.052;6.954;2023-02-13T09:08:45;103031.41;;;9.00;81.70
818;BME280;391;51.052;6.954;2023-02-13T09:10:54;103015.94;;;8.78;81.58
818;BME280;391;51.052;6.954;2023-02-13T09:12:59;103003.28;;;8.71;81.46
818;BME280;391;51.052;6.954;2023-02-13T09:15:03;103036.16;;;8.94;81.46
818;BME280;391;51.052;6.954;2023-02-13T09:17:07;103023.38;;;8.97;80.75
818;BME280;391;51.052;6.954;2023-02-13T09:19:10;103024.84;;;9.05;80.72
818;BME280;391;51.052;6.954;2023-02-13T09:21:14;103022.81;;;9.01;80.52
818;BME280;391;51.052;6.954;2023-02-13T09:23:18;103021.97;;;9.14;80.83
818;BME280;391;51.052;6.954;2023-02-13T09:25:22;103020.03;;;9.23;79.58
818;BME280;391;51.052;6.954;2023-02-13T09:27:26;103016.63;;;9.24;79.88
818;BME280;391;51.052;6.954;2023-02-13T09:29:29;103025.09;;;9.33;79.58
818;BME280;391;51.052;6.954;2023-02-13T09:31:34;103012.97;;;9.33;79.29
818;BME280;391;51.052;6.954;2023-02-13T09:33:38;103008.97;;;9.25;78.96
818;BME280;391;51.052;6.954;2023-02-13T09:35:42;103019.78;;;9.31;78.79
818;BME280;391;51.052;6.954;2023-02-13T09:37:46;102989.41;;;9.19;78.64
818;BME280;391;51.052;6.954;2023-02-13T09:39:49;103023.75;;;9.51;78.83
818;BME280;391;51.052;6.954;2023-02-13T09:41:54;103017.03;;;9.66;77.97
818;BME280;391;51.052;6.954;2023-02-13T09:44:01;102980.34;;;9.38;77.57
818;BME280;391;51.052;6.954;2023-02-13T09:46:11;103017.53;;;9.74;77.39
818;BME280;391;51.052;6.954;2023-02-13T09:48:22;103023.72;;;9.87;77.08
818;BME280;391;51.052;6.954;2023-02-13T09:50:30;103021.34;;;10.03;76.66
818;BME280;391;51.052;6.954;2023-02-13T09:52:37;103026.41;;;10.14;76.41
818;BME280;391;51.052;6.954;2023-02-13T09:54:42;103024.00;;;10.17;75.39
818;BME280;391;51.052;6.954;2023-02-13T09:56:49;103021.50;;;10.31;75.71
818;BME280;391;51.052;6.954;2023-02-13T09:59:01;103031.25;;;10.47;74.58
818;BME280;391;51.052;6.954;2023-02-13T10:01:17;103025.16;;;10.46;73.42
818;BME280;391;51.052;6.954;2023-02-13T10:03:27;103027.94;;;10.62;73.81
818;BME280;391;51.052;6.954;2023-02-13T10:05:43;103029.75;;;10.77;73.26
818;BME280;391;51.052;6.954;2023-02-13T10:07:57;103028.56;;;10.85;72.70
818;BME280;391;51.052;6.954;2023-02-13T10:10:13;103031.03;;;10.96;72.93
818;BME280;391;51.052;6.954;2023-02-13T10:15:00;103027.72;;;11.27;71.48
818;BME280;391;51.052;6.954;2023-02-13T10:17:10;103032.28;;;11.29;70.38
818;BME280;391;51.052;6.954;2023-02-13T10:19:27;103018.91;;;11.25;70.28
818;BME280;391;51.052;6.954;2023-02-13T10:21:35;103030.84;;;11.34;70.23
818;BME280;391;51.052;6.954;2023-02-13T10:23:43;103036.44;;;11.40;70.24
818;BME280;391;51.052;6.954;2023-02-13T10:25:52;102990.28;;;11.26;69.83
818;BME280;391;51.052;6.954;2023-02-13T10:28:04;102998.78;;;11.37;69.60
818;BME280;391;51.052;6.954;2023-02-13T10:30:18;103035.84;;;11.72;68.83
818;BME280;391;51.052;6.954;2023-02-13T10:32:26;103036.63;;;11.71;68.92
818;BME280;391;51.052;6.954;2023-02-13T10:34:35;103037.91;;;11.78;68.14
818;BME280;391;51.052;6.954;2023-02-13T10:36:43;103027.38;;;11.76;67.71
818;BME280;391;51.052;6.954;2023-02-13T10:38:55;103027.06;;;11.99;67.96
818;BME280;391;51.052;6.954;2023-02-13T10:41:20;103031.28;;;12.27;67.28
818;BME280;391;51.052;6.954;2023-02-13T10:43:26;103029.50;;;12.40;66.89
818;BME280;391;51.052;6.954;2023-02-13T10:45:50;103035.16;;;12.62;66.20
818;BME280;391;51.052;6.954;2023-02-13T10:48:07;103038.47;;;12.74;65.89
818;BME280;391;51.052;6.954;2023-02-13T10:50:21;103002.28;;;12.67;64.77
818;BME280;391;51.052;6.954;2023-02-13T10:52:40;103036.50;;;13.01;64.27
818;BME280;391;51.052;6.954;2023-02-13T10:55:00;103038.56;;;12.76;63.35
818;BME280;391;51.052;6.954;2023-02-13T10:57:12;103027.72;;;12.70;63.23
818;BME280;391;51.052;6.954;2023-02-13T10:59:35;103029.47;;;12.69;63.88
818;BME280;391;51.052;6.954;2023-02-13T11:01:47;102969.28;;;12.55;63.09
818;BME280;391;51.052;6.954;2023-02-13T11:04:05;103015.63;;;13.03;63.18
818;BME280;391;51.052;6.954;2023-02-13T11:06:13;103021.50;;;13.13;62.43
818;BME280;391;51.052;6.954;2023-02-13T11:08:22;102999.72;;;13.14;62.22
818;BME280;391;51.052;6.954;2023-02-13T11:10:26;103019.44;;;13.40;61.29
818;BME280;391;51.052;6.954;2023-02-13T11:12:31;103008.47;;;13.63;61.05
818;BME280;391;51.052;6.954;2023-02-13T11:14:37;103010.13;;;13.77;59.91
818;BME280;391;51.052;6.954;2023-02-13T11:16:47;102983.97;;;13.79;59.58
818;BME280;391;51.052;6.954;2023-02-13T11:18:51;102999.69;;;13.79;59.42
818;BME280;391;51.052;6.954;2023-02-13T11:20:59;102995.91;;;13.90;59.72
818;BME280;391;51.052;6.954;2023-02-13T11:23:26;102999.94;;;14.17;59.21
818;BME280;391;51.052;6.954;2023-02-13T11:25:37;102994.47;;;14.13;57.99
818;BME280;391;51.052;6.954;2023-02-13T11:27:40;102994.25;;;13.92;57.77
818;BME280;391;51.052;6.954;2023-02-13T11:29:52;102992.78;;;13.97;57.98
818;BME280;391;51.052;6.954;2023-02-13T11:32:05;102985.41;;;14.24;57.81
818;BME280;391;51.052;6.954;2023-02-13T11:34:24;102988.44;;;14.49;57.36
818;BME280;391;51.052;6.954;2023-02-13T11:36:29;102980.63;;;14.68;56.88
818;BME280;391;51.052;6.954;2023-02-13T11:38:34;102985.94;;;14.88;56.54
818;BME280;391;51.052;6.954;2023-02-13T11:40:37;102981.25;;;15.00;55.87
818;BME280;391;51.052;6.954;2023-02-13T11:42:43;102977.03;;;15.03;55.21
818;BME280;391;51.052;6.954;2023-02-13T11:44:51;102966.22;;;15.15;55.16
818;BME280;391;51.052;6.954;2023-02-13T11:46:56;102963.56;;;14.96;54.88
818;BME280;391;51.052;6.954;2023-02-13T11:49:04;102965.44;;;15.17;54.64
818;BME280;391;51.052;6.954;2023-02-13T11:51:07;102963.09;;;15.23;53.17
818;BME280;391;51.052;6.954;2023-02-13T11:53:18;102962.72;;;15.16;53.47
818;BME280;391;51.052;6.954;2023-02-13T11:55:27;102954.44;;;15.26;53.33